Time;durP1;ratioP1;P1;durP2;ratioP2;P2;SDS_P1;SDS_P2;PMS_P1;PMS_P2;Temp;Humidity;BMP_temperature;BMP_pressure;BME280_temperature;BME280_humidity;BME280_pressure;Samples;Min_cycle;Max_cycle;Signal;HPM_P1;HPM_P2
2022/05/27 00:00:17;;;;;;;4.90;2.10;;;;;;;;;;4975551;28;20845;-52
2022/05/27 00:02:43;;;;;;;3.93;2.67;;;;;;;;;;4975703;28;20898;-52
2022/05/27 00:05:09;;;;;;;7.17;2.70;;;;;;;;;;4975680;28;20401;-53
2022/05/27 00:07:35;;;;;;;5.80;2.40;;;;;;;;;;4975502;28;20499;-52
2022/05/27 00:10:01;;;;;;;3.80;2.07;;;;;;;;;;4975264;28;20452;-53
2022/05/27 00:12:27;;;;;;;2.70;2.47;;;;;;;;;;4975566;28;20460;-54
2022/05/27 00:14:53;;;;;;;2.57;2.23;;;;;;;;;;4975574;28;20759;-53
2022/05/27 00:17:19;;;;;;;2.83;2.50;;;;;;;;;;4975421;28;20390;-55
2022/05/27 00:19:45;;;;;;;2.80;2.27;;;;;;;;;;4975056;28;20403;-52
2022/05/27 00:22:11;;;;;;;2.27;2.17;;;;;;;;;;4975319;28;20414;-52
2022/05/27 00:24:37;;;;;;;2.83;2.20;;;;;;;;;;4975627;28;20384;-53
2022/05/27 00:27:05;;;;;;;2.57;2.30;;;;;;;;;;4975244;28;20420;-52
2022/05/27 00:29:31;;;;;;;3.30;2.40;;;;;;;;;;4974882;28;20414;-54
2022/05/27 00:31:57;;;;;;;3.40;2.40;;;;;;;;;;4975144;28;20560;-55
2022/05/27 00:34:23;;;;;;;3.77;1.93;;;;;;;;;;4975203;28;20415;-52
2022/05/27 00:36:49;;;;;;;3.50;2.03;;;;;;;;;;4975195;28;20394;-53
2022/05/27 00:39:15;;;;;;;2.77;2.57;;;;;;;;;;4974644;28;20981;-52
2022/05/27 00:41:44;;;;;;;4.40;2.70;;;;;;;;;;4974742;28;20938;-53
2022/05/27 00:44:10;;;;;;;2.90;2.20;;;;;;;;;;4974977;28;20520;-55
2022/05/27 00:46:36;;;;;;;5.27;2.60;;;;;;;;;;4974796;28;20547;-52
2022/05/27 00:49:05;;;;;;;3.70;2.80;;;;;;;;;;4974158;28;20439;-52
2022/05/27 00:51:33;;;;;;;3.43;3.23;;;;;;;;;;4972423;28;20476;-56
2022/05/27 00:54:06;;;;;;;3.20;2.97;;;;;;;;;;4973131;28;20372;-55
2022/05/27 00:56:33;;;;;;;6.43;3.20;;;;;;;;;;4974172;28;20436;-55
2022/05/27 00:59:01;;;;;;;8.23;3.43;;;;;;;;;;4974283;28;20921;-55
2022/05/27 01:01:28;;;;;;;3.43;2.90;;;;;;;;;;4974172;28;20391;-54
2022/05/27 01:03:58;;;;;;;3.47;3.17;;;;;;;;;;4973969;28;20447;-54
2022/05/27 01:06:24;;;;;;;9.03;3.00;;;;;;;;;;4974285;28;20416;-56
2022/05/27 01:08:50;;;;;;;3.20;2.90;;;;;;;;;;4974143;28;20438;-55
2022/05/27 01:11:23;;;;;;;4.20;3.00;;;;;;;;;;4974400;28;20387;-54
2022/05/27 01:14:08;;;;;;;5.90;3.07;;;;;;;;;;4974080;28;20795;-54
2022/05/27 01:16:37;;;;;;;4.83;3.57;;;;;;;;;;4974402;28;20559;-54
2022/05/27 01:22:20;;;;;;;3.93;3.63;;;;;;;;;;4974277;28;20475;-54
2022/05/27 01:25:01;;;;;;;8.93;4.10;;;;;;;;;;4974225;28;20787;-56
2022/05/27 01:27:42;;;;;;;3.00;2.80;;;;;;;;;;4974090;28;20506;-54
2022/05/27 01:30:22;;;;;;;5.73;3.20;;;;;;;;;;4973905;28;20485;-54
2022/05/27 01:32:52;;;;;;;7.80;3.33;;;;;;;;;;4973876;28;20889;-54
2022/05/27 01:35:24;;;;;;;5.30;3.30;;;;;;;;;;4974208;28;20447;-53
2022/05/27 01:37:53;;;;;;;4.13;3.00;;;;;;;;;;4974036;28;20448;-53
2022/05/27 01:40:42;;;;;;;3.90;3.60;;;;;;;;;;4973286;28;20405;-53
2022/05/27 01:43:08;;;;;;;4.10;3.60;;;;;;;;;;4929191;28;20953;-55
2022/05/27 01:45:49;;;;;;;6.93;4.00;;;;;;;;;;4973885;28;20380;-55
2022/05/27 01:48:19;;;;;;;3.50;3.07;;;;;;;;;;4973605;28;20554;-54
2022/05/27 01:50:49;;;;;;;6.00;3.50;;;;;;;;;;4973385;28;20820;-54
2022/05/27 01:53:15;;;;;;;6.93;3.63;;;;;;;;;;4973904;28;20938;-54
2022/05/27 01:55:45;;;;;;;5.73;4.03;;;;;;;;;;4973909;28;20408;-56
2022/05/27 01:58:13;;;;;;;4.30;4.00;;;;;;;;;;4973441;28;20405;-55
2022/05/27 02:00:42;;;;;;;4.50;3.67;;;;;;;;;;4973358;28;20479;-55
2022/05/27 02:03:14;;;;;;;7.63;3.93;;;;;;;;;;4973212;28;20399;-55
2022/05/27 02:05:53;;;;;;;4.53;3.97;;;;;;;;;;4973706;28;20499;-55
2022/05/27 02:08:20;;;;;;;11.40;3.87;;;;;;;;;;4973292;28;20468;-53
2022/05/27 02:10:59;;;;;;;5.20;3.30;;;;;;;;;;4973248;28;20894;-54
2022/05/27 02:13:54;;;;;;;7.67;4.50;;;;;;;;;;4973323;28;20898;-55
2022/05/27 02:16:33;;;;;;;6.30;3.70;;;;;;;;;;4952910;28;20452;-55
2022/05/27 02:19:02;;;;;;;4.17;3.87;;;;;;;;;;4973112;28;20424;-55
2022/05/27 02:21:34;;;;;;;4.73;4.33;;;;;;;;;;4972999;28;20420;-54
2022/05/27 02:24:09;;;;;;;6.10;4.57;;;;;;;;;;4973084;28;20889;-55
2022/05/27 02:26:39;;;;;;;4.23;3.80;;;;;;;;;;4973482;28;20828;-55
2022/05/27 02:29:07;;;;;;;5.20;4.10;;;;;;;;;;4972882;28;20549;-55
2022/05/27 02:31:35;;;;;;;5.60;5.00;;;;;;;;;;4973043;28;20885;-54
2022/05/27 02:37:01;;;;;;;6.00;4.50;;;;;;;;;;4973442;28;20386;-55
2022/05/27 02:39:28;;;;;;;6.50;4.77;;;;;;;;;;4972418;28;20531;-54
2022/05/27 02:41:57;;;;;;;10.10;4.80;;;;;;;;;;4972901;28;20405;-54
2022/05/27 02:44:23;;;;;;;6.63;5.23;;;;;;;;;;4973423;28;20378;-55
2022/05/27 02:47:04;;;;;;;11.10;4.90;;;;;;;;;;4973027;28;20392;-56
2022/05/27 02:49:35;;;;;;;6.10;4.90;;;;;;;;;;4972540;28;20498;-55
2022/05/27 02:52:16;;;;;;;8.50;4.80;;;;;;;;;;4973032;28;20432;-54
2022/05/27 02:55:02;;;;;;;4.80;4.30;;;;;;;;;;4972717;28;20815;-56
2022/05/27 02:57:30;;;;;;;10.10;5.13;;;;;;;;;;4924384;28;20418;-54
2022/05/27 02:59:58;;;;;;;5.77;4.10;;;;;;;;;;4972624;28;20442;-55
2022/05/27 03:02:24;;;;;;;8.73;4.90;;;;;;;;;;4972985;28;20380;-56
2022/05/27 03:04:51;;;;;;;12.20;5.00;;;;;;;;;;4972786;28;20673;-55
2022/05/27 03:07:17;;;;;;;5.10;4.70;;;;;;;;;;4972690;28;20878;-55
2022/05/27 03:10:09;;;;;;;5.13;4.63;;;;;;;;;;4972648;28;20405;-55
2022/05/27 03:12:40;;;;;;;6.83;4.67;;;;;;;;;;4936173;28;20414;-54
2022/05/27 03:15:23;;;;;;;6.17;4.70;;;;;;;;;;4975332;28;20410;-55
2022/05/27 03:17:55;;;;;;;6.80;5.20;;;;;;;;;;4976429;28;20411;-56
2022/05/27 03:20:30;;;;;;;7.53;4.87;;;;;;;;;;4974907;28;20776;-55
2022/05/27 03:23:10;;;;;;;12.10;5.27;;;;;;;;;;4976616;28;20449;-55
2022/05/27 03:25:44;;;;;;;8.33;5.20;;;;;;;;;;4976488;28;20481;-55
2022/05/27 03:28:14;;;;;;;13.33;6.60;;;;;;;;;;4976092;28;20451;-54
2022/05/27 03:30:48;;;;;;;9.00;5.63;;;;;;;;;;4976016;28;20405;-56
2022/05/27 03:33:35;;;;;;;7.80;5.77;;;;;;;;;;4976316;28;20407;-55
2022/05/27 03:36:15;;;;;;;10.37;5.57;;;;;;;;;;4976193;28;20444;-55
2022/05/27 03:38:53;;;;;;;9.73;5.53;;;;;;;;;;4975787;28;20398;-54
2022/05/27 03:41:27;;;;;;;5.73;5.10;;;;;;;;;;4975801;28;20437;-55
2022/05/27 03:43:54;;;;;;;7.60;5.90;;;;;;;;;;4976120;28;20410;-55
2022/05/27 03:46:27;;;;;;;7.13;5.63;;;;;;;;;;4975986;28;20498;-53
2022/05/27 03:48:53;;;;;;;7.20;6.03;;;;;;;;;;4975697;28;20522;-55
2022/05/27 03:51:24;;;;;;;8.60;6.50;;;;;;;;;;4975688;28;20801;-54
2022/05/27 03:54:05;;;;;;;6.10;4.90;;;;;;;;;;4975905;28;20503;-54
2022/05/27 03:56:32;;;;;;;8.87;4.80;;;;;;;;;;4976302;28;20409;-53
2022/05/27 03:58:59;;;;;;;6.53;4.17;;;;;;;;;;4975379;28;20514;-53
2022/05/27 04:01:26;;;;;;;4.17;3.77;;;;;;;;;;4975518;28;20409;-53
2022/05/27 04:03:54;;;;;;;6.13;4.37;;;;;;;;;;4975727;28;20410;-55
2022/05/27 04:06:20;;;;;;;6.60;4.53;;;;;;;;;;4975672;28;20410;-53
2022/05/27 04:08:45;;;;;;;6.37;4.20;;;;;;;;;;4975497;28;20473;-53
2022/05/27 04:14:15;;;;;;;9.33;3.17;;;;;;;;;;4975608;28;20432;-54
2022/05/27 04:16:41;;;;;;;5.00;3.37;;;;;;;;;;4975440;28;20855;-55
2022/05/27 04:19:08;;;;;;;7.17;3.80;;;;;;;;;;4975332;28;20421;-54
2022/05/27 04:21:34;;;;;;;5.90;3.40;;;;;;;;;;4975326;28;20413;-52
2022/05/27 04:24:00;;;;;;;4.10;3.70;;;;;;;;;;4975292;28;20415;-53
2022/05/27 04:26:27;;;;;;;3.90;3.50;;;;;;;;;;4975239;28;20428;-53
2022/05/27 04:28:53;;;;;;;3.93;3.57;;;;;;;;;;4974982;28;20457;-52
2022/05/27 04:31:19;;;;;;;5.57;4.17;;;;;;;;;;4975022;28;20457;-53
2022/05/27 04:33:44;;;;;;;4.93;4.40;;;;;;;;;;4975177;28;20401;-53
2022/05/27 04:36:11;;;;;;;4.90;4.07;;;;;;;;;;4975249;28;20403;-54
2022/05/27 04:38:38;;;;;;;7.47;4.43;;;;;;;;;;4974568;28;20426;-54
2022/05/27 04:41:04;;;;;;;6.53;4.13;;;;;;;;;;4974892;28;20449;-54
2022/05/27 04:43:30;;;;;;;4.53;4.13;;;;;;;;;;4975051;28;20421;-53
2022/05/27 04:45:56;;;;;;;4.20;3.90;;;;;;;;;;4974995;28;20410;-54
2022/05/27 04:48:22;;;;;;;4.80;4.40;;;;;;;;;;4974455;28;20464;-53
2022/05/27 04:50:48;;;;;;;4.70;4.30;;;;;;;;;;4974690;28;20473;-52
2022/05/27 04:53:14;;;;;;;4.43;4.00;;;;;;;;;;4974750;28;20401;-53
2022/05/27 04:55:41;;;;;;;7.90;4.10;;;;;;;;;;4974763;28;20383;-55
2022/05/27 04:58:07;;;;;;;4.53;4.07;;;;;;;;;;4974509;28;20407;-55
2022/05/27 05:00:35;;;;;;;3.73;3.53;;;;;;;;;;4974512;28;20414;-54
2022/05/27 05:03:01;;;;;;;6.13;4.00;;;;;;;;;;4974568;28;20981;-53
2022/05/27 05:05:28;;;;;;;5.33;4.50;;;;;;;;;;4974619;28;20460;-55
2022/05/27 05:08:05;;;;;;;4.50;4.10;;;;;;;;;;4974329;28;20856;-53
2022/05/27 05:10:31;;;;;;;6.30;4.30;;;;;;;;;;4974314;28;20421;-53
2022/05/27 05:12:57;;;;;;;5.07;4.27;;;;;;;;;;4974569;28;20436;-54
2022/05/27 05:15:24;;;;;;;4.70;4.23;;;;;;;;;;4974271;28;20442;-54
2022/05/27 05:17:50;;;;;;;5.67;4.93;;;;;;;;;;4974231;28;20410;-54
2022/05/27 05:20:17;;;;;;;9.53;4.97;;;;;;;;;;4973958;28;20400;-54
2022/05/27 05:22:43;;;;;;;5.20;4.60;;;;;;;;;;4974276;28;20433;-54
2022/05/27 05:25:10;;;;;;;5.70;4.33;;;;;;;;;;4974282;28;20419;-55
2022/05/27 05:27:38;;;;;;;5.93;4.70;;;;;;;;;;4974115;28;20988;-54
2022/05/27 05:30:05;;;;;;;6.57;5.97;;;;;;;;;;4973751;28;20426;-53
2022/05/27 05:32:32;;;;;;;5.80;5.30;;;;;;;;;;4974322;28;20441;-52
2022/05/27 05:34:59;;;;;;;5.80;5.20;;;;;;;;;;4974044;28;20399;-54
2022/05/27 05:37:25;;;;;;;5.30;4.80;;;;;;;;;;4973582;28;20416;-54
2022/05/27 05:39:52;;;;;;;5.40;4.97;;;;;;;;;;4973494;28;20435;-54
2022/05/27 05:42:18;;;;;;;6.53;4.00;;;;;;;;;;4973822;28;20971;-54
2022/05/27 05:44:43;;;;;;;5.90;5.40;;;;;;;;;;4973679;28;20410;-55
2022/05/27 05:47:09;;;;;;;5.60;5.00;;;;;;;;;;4973986;28;20440;-55
2022/05/27 05:49:35;;;;;;;6.00;4.57;;;;;;;;;;4973389;28;20992;-55
2022/05/27 05:52:01;;;;;;;7.37;5.23;;;;;;;;;;4973873;28;20467;-54
2022/05/27 05:54:29;;;;;;;6.63;5.70;;;;;;;;;;4973815;28;20405;-54
2022/05/27 05:56:55;;;;;;;6.83;5.63;;;;;;;;;;4973674;28;20408;-53
2022/05/27 05:59:22;;;;;;;6.80;5.57;;;;;;;;;;4973416;28;20432;-54
2022/05/27 06:01:48;;;;;;;6.97;5.43;;;;;;;;;;4973655;28;20851;-56
2022/05/27 06:04:14;;;;;;;5.67;5.17;;;;;;;;;;4973741;28;20526;-53
2022/05/27 06:06:40;;;;;;;6.53;5.53;;;;;;;;;;4973453;28;20434;-55
2022/05/27 06:09:07;;;;;;;6.73;5.47;;;;;;;;;;4973297;28;20438;-53
2022/05/27 06:11:34;;;;;;;6.63;5.73;;;;;;;;;;4973149;28;20977;-55
2022/05/27 06:14:00;;;;;;;8.43;6.17;;;;;;;;;;4973257;28;20413;-53
2022/05/27 06:16:26;;;;;;;8.10;6.50;;;;;;;;;;4973336;28;20376;-55
2022/05/27 06:18:51;;;;;;;5.90;5.40;;;;;;;;;;4973362;28;20431;-55
2022/05/27 06:21:17;;;;;;;6.80;6.10;;;;;;;;;;4973289;28;20409;-54
2022/05/27 06:23:44;;;;;;;7.60;6.13;;;;;;;;;;4973351;28;20500;-54
2022/05/27 06:26:11;;;;;;;6.40;5.07;;;;;;;;;;4973340;28;20749;-54
2022/05/27 06:34:25;;;;;;;6.10;5.27;;;;;;;;;;4973461;28;20465;-55
2022/05/27 06:37:05;;;;;;;5.93;4.67;;;;;;;;;;4973069;28;20581;-55
2022/05/27 06:39:32;;;;;;;8.60;5.30;;;;;;;;;;4973153;28;20413;-55
2022/05/27 06:41:59;;;;;;;5.73;5.23;;;;;;;;;;4972823;28;20468;-54
2022/05/27 06:44:25;;;;;;;7.27;5.23;;;;;;;;;;4973051;28;20483;-54
2022/05/27 06:46:52;;;;;;;6.03;5.20;;;;;;;;;;4973112;28;20482;-53
2022/05/27 06:49:18;;;;;;;7.13;5.80;;;;;;;;;;4974082;28;20514;-55
2022/05/27 06:51:44;;;;;;;7.90;5.80;;;;;;;;;;4977485;28;20387;-52
2022/05/27 06:54:10;;;;;;;6.17;5.63;;;;;;;;;;4977379;28;20423;-52
2022/05/27 06:56:37;;;;;;;7.83;5.70;;;;;;;;;;4976952;28;20758;-53
2022/05/27 06:59:03;;;;;;;6.33;5.83;;;;;;;;;;4976842;28;20425;-53
2022/05/27 07:01:29;;;;;;;5.37;4.73;;;;;;;;;;4977067;28;20408;-53
2022/05/27 07:03:55;;;;;;;6.00;5.30;;;;;;;;;;4976767;28;20466;-52
2022/05/27 07:06:23;;;;;;;9.43;5.77;;;;;;;;;;4977271;28;20417;-54
2022/05/27 07:08:49;;;;;;;8.53;4.77;;;;;;;;;;4976599;28;20493;-56
2022/05/27 07:11:15;;;;;;;5.10;4.50;;;;;;;;;;4976595;28;20405;-52
2022/05/27 07:13:41;;;;;;;10.50;5.33;;;;;;;;;;4976585;28;20376;-52
2022/05/27 07:16:07;;;;;;;8.87;5.83;;;;;;;;;;4976832;28;20955;-53
2022/05/27 07:18:33;;;;;;;6.37;5.67;;;;;;;;;;4976348;28;20396;-52
2022/05/27 07:21:03;;;;;;;6.20;5.60;;;;;;;;;;4976339;28;20408;-52
2022/05/27 07:23:29;;;;;;;9.17;6.73;;;;;;;;;;4976484;28;20391;-52
2022/05/27 07:25:55;;;;;;;8.10;6.00;;;;;;;;;;4976505;28;20765;-52
2022/05/27 07:28:21;;;;;;;6.83;6.23;;;;;;;;;;4976075;28;20465;-52
2022/05/27 07:30:47;;;;;;;9.80;5.87;;;;;;;;;;4976300;28;20715;-52
2022/05/27 07:33:13;;;;;;;7.40;6.43;;;;;;;;;;4976248;28;20405;-52
2022/05/27 07:35:39;;;;;;;8.83;6.20;;;;;;;;;;4976293;28;20743;-53
2022/05/27 07:38:05;;;;;;;8.40;6.20;;;;;;;;;;4976082;28;20446;-52
2022/05/27 07:40:31;;;;;;;15.57;7.70;;;;;;;;;;4976107;28;20823;-54
2022/05/27 07:42:57;;;;;;;9.37;7.03;;;;;;;;;;4975948;28;20518;-56
2022/05/27 07:45:27;;;;;;;9.60;6.73;;;;;;;;;;4976581;28;20417;-53
2022/05/27 07:47:54;;;;;;;8.63;6.40;;;;;;;;;;4975896;28;20458;-52
2022/05/27 07:50:20;;;;;;;6.77;6.13;;;;;;;;;;4975761;28;20890;-55
2022/05/27 07:52:46;;;;;;;7.83;7.03;;;;;;;;;;4975943;28;20383;-54
2022/05/27 07:55:13;;;;;;;9.70;7.30;;;;;;;;;;4975991;28;20490;-54
2022/05/27 07:57:43;;;;;;;10.43;6.80;;;;;;;;;;4975819;28;20448;-53
2022/05/27 08:00:10;;;;;;;9.50;5.90;;;;;;;;;;4975075;28;20436;-54
2022/05/27 08:02:36;;;;;;;12.57;5.50;;;;;;;;;;4975901;28;20411;-53
2022/05/27 08:05:02;;;;;;;6.30;5.70;;;;;;;;;;4975676;28;20979;-53
2022/05/27 08:07:28;;;;;;;13.60;5.70;;;;;;;;;;4975754;28;20416;-53
2022/05/27 08:09:54;;;;;;;12.80;5.70;;;;;;;;;;4975292;28;20420;-53
2022/05/27 08:12:20;;;;;;;8.37;5.40;;;;;;;;;;4975739;28;20433;-54
2022/05/27 08:14:46;;;;;;;7.50;4.30;;;;;;;;;;4975497;28;20407;-53
2022/05/27 08:17:12;;;;;;;12.63;5.10;;;;;;;;;;4975551;28;20431;-54
2022/05/27 08:19:38;;;;;;;4.70;4.10;;;;;;;;;;4975289;28;20920;-55
2022/05/27 08:22:04;;;;;;;5.20;3.90;;;;;;;;;;4975411;28;20418;-55
2022/05/27 08:24:30;;;;;;;9.93;4.20;;;;;;;;;;4975265;28;20543;-55
2022/05/27 08:26:56;;;;;;;5.00;3.23;;;;;;;;;;4976674;28;20958;-54
2022/05/27 08:29:22;;;;;;;4.47;4.07;;;;;;;;;;4980440;28;20471;-54
2022/05/27 08:31:48;;;;;;;7.27;3.40;;;;;;;;;;4975180;28;20555;-53
2022/05/27 08:39:48;;;;;;;7.50;4.30;;;;;;;;;;4973101;28;20861;-53
2022/05/27 08:42:35;;;;;;;12.53;5.27;;;;;;;;;;4974126;28;20425;-54
2022/05/27 08:45:09;;;;;;;10.57;5.50;;;;;;;;;;4974683;28;20409;-53
2022/05/27 08:47:37;;;;;;;5.70;5.30;;;;;;;;;;4974909;28;20460;-53
2022/05/27 08:50:19;;;;;;;8.63;6.57;;;;;;;;;;4974400;28;21031;-54
2022/05/27 08:52:47;;;;;;;5.80;5.30;;;;;;;;;;4974835;28;20410;-54
2022/05/27 09:01:09;;;;;;;8.83;6.10;;;;;;;;;;4974471;28;20989;-55
2022/05/27 09:03:38;;;;;;;8.00;6.33;;;;;;;;;;4974875;28;20410;-54
2022/05/27 09:06:05;;;;;;;5.70;5.17;;;;;;;;;;4974506;28;20403;-54
2022/05/27 09:08:31;;;;;;;5.30;4.80;;;;;;;;;;4974381;28;20546;-53
2022/05/27 09:11:00;;;;;;;9.20;4.60;;;;;;;;;;4974073;28;20409;-54
2022/05/27 09:13:29;;;;;;;7.07;5.27;;;;;;;;;;4973880;28;20586;-55
2022/05/27 09:15:55;;;;;;;5.67;3.97;;;;;;;;;;4974457;28;20776;-54
2022/05/27 09:18:24;;;;;;;4.30;3.80;;;;;;;;;;4974275;28;20943;-53
2022/05/27 09:20:50;;;;;;;5.50;3.20;;;;;;;;;;4972982;28;20777;-54
2022/05/27 09:23:22;;;;;;;12.03;3.10;;;;;;;;;;4974601;28;20464;-53
2022/05/27 09:25:56;;;;;;;4.03;2.70;;;;;;;;;;4974090;28;20464;-55
2022/05/27 09:28:22;;;;;;;8.20;2.90;;;;;;;;;;4973935;28;20830;-54
2022/05/27 09:30:48;;;;;;;2.63;2.23;;;;;;;;;;4973973;28;20409;-54
2022/05/27 09:33:17;;;;;;;5.67;2.90;;;;;;;;;;4973991;28;20500;-54
2022/05/27 09:35:47;;;;;;;6.60;2.63;;;;;;;;;;4974069;28;20405;-53
2022/05/27 09:38:17;;;;;;;4.60;3.20;;;;;;;;;;4956421;28;20417;-53
2022/05/27 09:40:48;;;;;;;8.33;3.13;;;;;;;;;;4973526;28;20783;-53
2022/05/27 09:43:13;;;;;;;4.00;3.07;;;;;;;;;;4973885;28;20417;-53
2022/05/27 09:45:40;;;;;;;5.50;2.93;;;;;;;;;;4973897;28;20912;-53
2022/05/27 09:48:07;;;;;;;4.73;3.10;;;;;;;;;;4973626;28;20463;-53
2022/05/27 09:50:40;;;;;;;3.70;3.03;;;;;;;;;;4973563;28;20508;-53
2022/05/27 09:53:06;;;;;;;4.70;2.87;;;;;;;;;;4981075;28;20431;-55
2022/05/27 09:55:38;;;;;;;3.50;2.17;;;;;;;;;;4973943;28;20751;-54
2022/05/27 09:58:06;;;;;;;8.47;2.60;;;;;;;;;;4973429;28;20970;-53
2022/05/27 10:00:42;;;;;;;3.50;2.60;;;;;;;;;;4972271;28;20444;-54
2022/05/27 10:03:20;;;;;;;3.60;2.60;;;;;;;;;;4973478;28;20448;-55
2022/05/27 10:05:54;;;;;;;4.27;2.80;;;;;;;;;;4973402;28;20950;-53
2022/05/27 10:08:28;;;;;;;5.93;2.43;;;;;;;;;;4973232;28;20461;-54
2022/05/27 10:11:06;;;;;;;4.97;2.57;;;;;;;;;;4973164;28;20766;-53
2022/05/27 10:13:34;;;;;;;7.93;2.60;;;;;;;;;;4973351;28;20775;-54
2022/05/27 10:16:11;;;;;;;5.40;2.60;;;;;;;;;;4973340;28;20405;-55
2022/05/27 10:18:38;;;;;;;6.47;3.17;;;;;;;;;;4972399;28;20432;-56
2022/05/27 10:21:15;;;;;;;9.20;2.60;;;;;;;;;;4972048;28;20409;-54
2022/05/27 10:23:43;;;;;;;4.30;2.67;;;;;;;;;;4971953;28;20409;-54
2022/05/27 10:26:24;;;;;;;6.60;2.87;;;;;;;;;;4972149;28;20903;-53
2022/05/27 10:29:06;;;;;;;4.30;2.40;;;;;;;;;;4970989;28;20471;-54
2022/05/27 10:31:32;;;;;;;7.80;3.80;;;;;;;;;;4971406;28;20412;-55
2022/05/27 10:34:00;;;;;;;4.60;3.40;;;;;;;;;;4973165;28;20931;-57
2022/05/27 10:36:32;;;;;;;5.57;2.50;;;;;;;;;;4972799;28;20459;-54
2022/05/27 10:39:02;;;;;;;7.87;3.30;;;;;;;;;;4972864;28;21002;-53
2022/05/27 10:41:34;;;;;;;9.13;2.80;;;;;;;;;;4972545;28;20434;-54
2022/05/27 10:44:18;;;;;;;6.03;2.90;;;;;;;;;;4973012;28;20416;-54
2022/05/27 10:46:54;;;;;;;4.80;2.70;;;;;;;;;;4972926;28;20413;-54
2022/05/27 10:49:39;;;;;;;12.53;4.27;;;;;;;;;;4972747;28;20463;-55
2022/05/27 10:52:05;;;;;;;7.27;2.37;;;;;;;;;;4972799;28;20475;-54
2022/05/27 10:54:33;;;;;;;6.73;2.37;;;;;;;;;;4973083;28;20440;-54
2022/05/27 11:02:59;;;;;;;5.00;2.43;;;;;;;;;;4972827;28;20435;-54
2022/05/27 11:05:44;;;;;;;5.03;2.47;;;;;;;;;;4973020;28;20455;-55
2022/05/27 11:08:15;;;;;;;4.43;2.70;;;;;;;;;;4972806;28;20508;-54
2022/05/27 11:10:44;;;;;;;9.23;2.40;;;;;;;;;;4972793;28;20495;-54
2022/05/27 11:16:29;;;;;;;5.00;2.40;;;;;;;;;;4972889;28;20448;-55
2022/05/27 11:19:14;;;;;;;8.00;2.63;;;;;;;;;;4972745;28;20428;-55
2022/05/27 11:21:40;;;;;;;5.07;2.70;;;;;;;;;;4972559;28;20411;-54
2022/05/27 11:24:24;;;;;;;8.20;3.00;;;;;;;;;;4972795;28;20411;-55
2022/05/27 11:27:05;;;;;;;9.13;2.70;;;;;;;;;;4972697;28;20440;-56
2022/05/27 11:29:50;;;;;;;4.70;3.10;;;;;;;;;;4972566;28;20464;-54
2022/05/27 11:32:19;;;;;;;8.13;2.77;;;;;;;;;;4972438;28;20393;-54
2022/05/27 11:34:45;;;;;;;4.57;2.60;;;;;;;;;;4973051;28;20408;-55
2022/05/27 11:37:20;;;;;;;3.93;2.70;;;;;;;;;;4976089;28;20408;-57
2022/05/27 11:40:04;;;;;;;6.73;3.67;;;;;;;;;;4975956;28;20443;-55
2022/05/27 11:42:33;;;;;;;5.17;2.40;;;;;;;;;;4976049;28;20442;-54
2022/05/27 11:45:17;;;;;;;4.07;2.20;;;;;;;;;;4976349;28;20469;-56
2022/05/27 11:47:50;;;;;;;6.17;2.33;;;;;;;;;;4982533;28;20465;-56
2022/05/27 11:50:28;;;;;;;6.20;2.30;;;;;;;;;;4967536;28;20463;-56
2022/05/27 11:53:12;;;;;;;4.53;2.37;;;;;;;;;;4975995;28;20432;-56
2022/05/27 11:56:13;;;;;;;4.67;2.33;;;;;;;;;;4975963;28;20416;-56
2022/05/27 11:58:53;;;;;;;8.17;2.87;;;;;;;;;;4861103;29;20448;-57
2022/05/27 12:01:25;;;;;;;7.17;2.53;;;;;;;;;;4963578;28;20432;-56
2022/05/27 12:04:05;;;;;;;4.00;1.97;;;;;;;;;;4973649;28;20439;-56
2022/05/27 12:06:54;;;;;;;2.27;1.80;;;;;;;;;;4973541;28;20507;-56
2022/05/27 12:09:30;;;;;;;3.07;2.40;;;;;;;;;;4942708;28;20465;-57
2022/05/27 12:11:59;;;;;;;4.20;2.00;;;;;;;;;;4971251;28;20431;-57
2022/05/27 12:14:43;;;;;;;6.03;2.40;;;;;;;;;;4973791;28;20786;-56
2022/05/27 12:17:13;;;;;;;6.13;2.30;;;;;;;;;;4975134;28;20405;-57
2022/05/27 12:19:42;;;;;;;3.83;1.93;;;;;;;;;;4974976;28;20441;-57
2022/05/27 12:22:37;;;;;;;9.63;2.50;;;;;;;;;;4956046;28;20419;-57
2022/05/27 12:25:03;;;;;;;7.80;2.70;;;;;;;;;;4937954;28;20463;-57
2022/05/27 12:27:29;;;;;;;5.57;2.20;;;;;;;;;;4975048;28;20412;-59
2022/05/27 12:29:56;;;;;;;4.80;2.17;;;;;;;;;;4975193;28;20421;-54
2022/05/27 12:32:24;;;;;;;8.13;2.20;;;;;;;;;;4974597;28;20433;-54
2022/05/27 12:34:51;;;;;;;5.10;2.13;;;;;;;;;;4975498;28;20435;-54
2022/05/27 12:37:25;;;;;;;5.80;2.33;;;;;;;;;;4957394;28;20432;-54
2022/05/27 12:39:52;;;;;;;4.30;2.10;;;;;;;;;;4957518;28;20432;-53
2022/05/27 12:42:18;;;;;;;5.50;1.87;;;;;;;;;;4974543;28;20442;-53
2022/05/27 12:44:45;;;;;;;6.83;3.50;;;;;;;;;;4974959;28;20406;-56
2022/05/27 12:47:29;;;;;;;3.93;2.17;;;;;;;;;;4956452;28;20849;-57
2022/05/27 12:50:07;;;;;;;5.17;2.10;;;;;;;;;;4974965;28;20429;-57
2022/05/27 12:52:33;;;;;;;4.60;2.00;;;;;;;;;;4956886;28;20421;-57
2022/05/27 12:54:59;;;;;;;3.73;2.17;;;;;;;;;;4975039;28;20402;-57
2022/05/27 13:03:30;;;;;;;3.73;2.33;;;;;;;;;;4960449;28;20393;-56
2022/05/27 13:06:14;;;;;;;9.03;2.77;;;;;;;;;;4956946;28;20912;-56
2022/05/27 13:08:52;;;;;;;5.53;2.30;;;;;;;;;;4974177;28;20467;-56
2022/05/27 13:11:26;;;;;;;4.87;2.27;;;;;;;;;;4955063;29;20405;-56
2022/05/27 13:14:21;;;;;;;3.40;2.00;;;;;;;;;;4968063;28;20571;-56
2022/05/27 13:17:07;;;;;;;6.57;2.93;;;;;;;;;;4951444;28;20463;-55
2022/05/27 13:19:36;;;;;;;3.47;2.33;;;;;;;;;;4973214;28;20477;-58
2022/05/27 13:22:05;;;;;;;3.03;2.23;;;;;;;;;;4973955;28;20403;-59
2022/05/27 13:24:42;;;;;;;6.70;2.30;;;;;;;;;;4973867;28;20427;-59
2022/05/27 13:27:12;;;;;;;5.63;2.23;;;;;;;;;;4974342;28;20772;-59
2022/05/27 13:29:50;;;;;;;3.10;1.63;;;;;;;;;;4973868;28;20499;-58
2022/05/27 13:32:20;;;;;;;7.70;2.07;;;;;;;;;;4974037;28;20409;-54
2022/05/27 13:34:52;;;;;;;7.50;2.07;;;;;;;;;;4973653;28;20415;-56
2022/05/27 13:37:33;;;;;;;7.23;2.57;;;;;;;;;;4974273;28;20397;-54
2022/05/27 13:40:04;;;;;;;6.13;1.93;;;;;;;;;;4973773;28;20447;-55
2022/05/27 13:42:32;;;;;;;4.70;1.93;;;;;;;;;;4973792;28;20423;-54
2022/05/27 13:45:08;;;;;;;4.67;1.90;;;;;;;;;;4973693;28;20480;-54
2022/05/27 13:47:36;;;;;;;10.60;2.10;;;;;;;;;;4973976;28;21025;-54
2022/05/27 13:50:02;;;;;;;5.37;2.40;;;;;;;;;;4973246;28;20445;-56
2022/05/27 13:52:35;;;;;;;9.40;2.70;;;;;;;;;;4973617;28;20409;-55
2022/05/27 13:55:06;;;;;;;4.37;2.23;;;;;;;;;;4973633;28;20423;-55
2022/05/27 13:57:33;;;;;;;5.67;1.90;;;;;;;;;;4973276;28;20820;-56
2022/05/27 14:00:00;;;;;;;4.07;2.20;;;;;;;;;;4973268;28;20452;-55
2022/05/27 14:02:30;;;;;;;5.00;2.50;;;;;;;;;;4973640;28;20924;-56
2022/05/27 14:05:05;;;;;;;4.60;2.47;;;;;;;;;;4955943;28;20417;-56
2022/05/27 14:07:35;;;;;;;4.40;2.30;;;;;;;;;;4969964;28;20420;-55
2022/05/27 14:10:03;;;;;;;7.37;3.10;;;;;;;;;;4973177;28;20829;-59
2022/05/27 14:12:31;;;;;;;9.07;4.23;;;;;;;;;;4973253;28;20979;-59
2022/05/27 14:15:00;;;;;;;4.93;2.53;;;;;;;;;;4973581;28;20410;-58
2022/05/27 14:17:26;;;;;;;5.73;2.67;;;;;;;;;;4973644;28;20517;-58
2022/05/27 14:20:03;;;;;;;4.77;2.73;;;;;;;;;;4979344;28;20961;-57
2022/05/27 14:22:44;;;;;;;6.03;2.20;;;;;;;;;;4952783;29;20406;-59
2022/05/27 14:25:19;;;;;;;7.50;2.13;;;;;;;;;;4954041;28;20475;-59
2022/05/27 14:27:56;;;;;;;8.10;2.20;;;;;;;;;;4972516;28;20482;-58
2022/05/27 14:30:26;;;;;;;3.30;2.03;;;;;;;;;;4973016;28;20431;-58
2022/05/27 14:32:52;;;;;;;2.97;1.90;;;;;;;;;;4962831;28;20796;-59
2022/05/27 14:35:23;;;;;;;7.10;1.90;;;;;;;;;;4972995;28;20428;-58
2022/05/27 14:38:08;;;;;;;5.07;2.40;;;;;;;;;;4973305;28;20463;-56
2022/05/27 14:40:45;;;;;;;7.63;2.40;;;;;;;;;;4972354;28;20442;-55
2022/05/27 14:43:30;;;;;;;4.50;2.30;;;;;;;;;;4973153;28;20407;-59
2022/05/27 14:45:58;;;;;;;2.90;2.27;;;;;;;;;;4972064;28;20826;-59
2022/05/27 14:48:25;;;;;;;6.23;2.30;;;;;;;;;;4973127;28;20955;-58
2022/05/27 14:50:51;;;;;;;3.90;2.10;;;;;;;;;;4968680;28;20567;-56
2022/05/27 14:53:18;;;;;;;7.33;2.13;;;;;;;;;;4973066;28;20413;-55
2022/05/27 14:55:44;;;;;;;4.23;2.10;;;;;;;;;;4973002;28;20403;-56
2022/05/27 14:58:11;;;;;;;3.30;2.40;;;;;;;;;;4971975;28;20424;-56
2022/05/27 15:00:45;;;;;;;5.87;2.70;;;;;;;;;;4973708;28;20901;-56
2022/05/27 15:03:35;;;;;;;5.00;1.93;;;;;;;;;;4974096;28;20432;-56
2022/05/27 15:06:10;;;;;;;4.23;2.30;;;;;;;;;;4972173;28;20884;-57
2022/05/27 15:08:36;;;;;;;6.90;2.30;;;;;;;;;;4965958;28;20498;-58
2022/05/27 15:11:20;;;;;;;3.90;2.30;;;;;;;;;;4961311;28;20497;-58
2022/05/27 15:13:48;;;;;;;7.40;2.53;;;;;;;;;;4966454;28;20790;-57
2022/05/27 15:16:26;;;;;;;6.83;2.00;;;;;;;;;;4963147;28;20774;-57
2022/05/27 15:18:55;;;;;;;6.73;2.97;;;;;;;;;;4971236;28;21183;-58
2022/05/27 15:21:29;;;;;;;3.57;1.87;;;;;;;;;;4968883;28;20507;-58
2022/05/27 15:23:56;;;;;;;2.70;1.60;;;;;;;;;;4957857;28;20420;-58
2022/05/27 15:34:44;;;;;;;4.20;1.90;;;;;;;;;;4975708;28;21208;-58
2022/05/27 15:37:10;;;;;;;3.57;2.17;;;;;;;;;;4983579;28;20436;-58
2022/05/27 15:39:36;;;;;;;8.63;3.20;;;;;;;;;;4991930;28;20437;-58
2022/05/27 15:42:04;;;;;;;3.77;2.00;;;;;;;;;;4969276;28;20457;-58
2022/05/27 15:44:31;;;;;;;7.57;2.17;;;;;;;;;;4974645;28;20449;-58
2022/05/27 15:46:57;;;;;;;7.13;2.27;;;;;;;;;;4975400;28;20432;-58
2022/05/27 15:49:23;;;;;;;8.37;2.70;;;;;;;;;;4976355;28;20464;-57
2022/05/27 15:51:49;;;;;;;5.73;2.10;;;;;;;;;;4975182;28;20425;-58